sensor_id;sensor_type;location;lat;lon;timestamp;pressure;altitude;pressure_sealevel;temperature;humidity
34237;BME280;20501;45.956;13.632;2023-04-30T00:01:38;100585.59;;;14.46;71.78
34237;BME280;20501;45.956;13.632;2023-04-30T00:04:04;100577.84;;;14.68;69.87
34237;BME280;20501;45.956;13.632;2023-04-30T00:06:29;100586.88;;;14.77;69.56
34237;BME280;20501;45.956;13.632;2023-04-30T00:08:55;100594.81;;;14.62;69.78
34237;BME280;20501;45.956;13.632;2023-04-30T00:11:20;100590.16;;;15.05;67.92
34237;BME280;20501;45.956;13.632;2023-04-30T00:13:46;100594.47;;;14.65;70.00
34237;BME280;20501;45.956;13.632;2023-04-30T00:16:11;100604.53;;;14.21;72.60
34237;BME280;20501;45.956;13.632;2023-04-30T00:18:37;100609.59;;;13.82;74.38
34237;BME280;20501;45.956;13.632;2023-04-30T00:21:03;100602.53;;;14.32;70.93
34237;BME280;20501;45.956;13.632;2023-04-30T00:23:28;100605.81;;;14.44;71.68
34237;BME280;20501;45.956;13.632;2023-04-30T00:25:54;100595.88;;;14.69;69.93
34237;BME280;20501;45.956;13.632;2023-04-30T00:28:19;100598.97;;;14.99;68.47
34237;BME280;20501;45.956;13.632;2023-04-30T00:30:45;100596.44;;;15.14;68.00
34237;BME280;20501;45.956;13.632;2023-04-30T00:33:10;100601.88;;;15.14;68.15
34237;BME280;20501;45.956;13.632;2023-04-30T00:35:36;100606.19;;;13.80;74.69
34237;BME280;20501;45.956;13.632;2023-04-30T00:38:01;100607.13;;;14.31;71.83
34237;BME280;20501;45.956;13.632;2023-04-30T00:40:27;100607.91;;;13.54;75.24
34237;BME280;20501;45.956;13.632;2023-04-30T00:42:52;100595.75;;;13.40;76.38
34237;BME280;20501;45.956;13.632;2023-04-30T00:45:20;100588.56;;;13.57;75.17
34237;BME280;20501;45.956;13.632;2023-04-30T00:47:46;100597.31;;;13.25;77.03
34237;BME280;20501;45.956;13.632;2023-04-30T00:50:12;100590.47;;;13.21;77.12
34237;BME280;20501;45.956;13.632;2023-04-30T00:52:41;100595.28;;;13.27;76.87
34237;BME280;20501;45.956;13.632;2023-04-30T00:55:07;100588.97;;;13.62;75.17
34237;BME280;20501;45.956;13.632;2023-04-30T00:57:33;100590.41;;;13.30;76.76
34237;BME280;20501;45.956;13.632;2023-04-30T01:00:00;100593.03;;;13.40;76.39
34237;BME280;20501;45.956;13.632;2023-04-30T01:02:26;100591.72;;;13.08;78.19
34237;BME280;20501;45.956;13.632;2023-04-30T01:04:51;100591.91;;;13.07;77.91
34237;BME280;20501;45.956;13.632;2023-04-30T01:07:17;100586.34;;;12.72;79.63
34237;BME280;20501;45.956;13.632;2023-04-30T01:09:42;100590.59;;;12.93;79.00
34237;BME280;20501;45.956;13.632;2023-04-30T01:12:19;100590.97;;;12.98;78.79
34237;BME280;20501;45.956;13.632;2023-04-30T01:14:58;100590.03;;;13.07;78.44
34237;BME280;20501;45.956;13.632;2023-04-30T01:20:00;100582.56;;;13.72;75.32
34237;BME280;20501;45.956;13.632;2023-04-30T01:25:31;100583.97;;;13.31;77.02
34237;BME280;20501;45.956;13.632;2023-04-30T01:30:30;100587.50;;;13.50;76.10
34237;BME280;20501;45.956;13.632;2023-04-30T01:32:57;100590.44;;;13.57;75.78
34237;BME280;20501;45.956;13.632;2023-04-30T01:35:52;100585.06;;;14.00;73.11
34237;BME280;20501;45.956;13.632;2023-04-30T01:41:03;100589.09;;;13.16;77.47
34237;BME280;20501;45.956;13.632;2023-04-30T01:43:42;100585.34;;;13.18;77.63
34237;BME280;20501;45.956;13.632;2023-04-30T01:46:39;100585.50;;;13.34;76.45
34237;BME280;20501;45.956;13.632;2023-04-30T01:49:18;100581.03;;;13.25;77.11
34237;BME280;20501;45.956;13.632;2023-04-30T01:51:58;100578.38;;;13.86;74.36
34237;BME280;20501;45.956;13.632;2023-04-30T01:54:43;100570.94;;;14.31;72.55
34237;BME280;20501;45.956;13.632;2023-04-30T01:57:25;100573.13;;;14.70;69.99
34237;BME280;20501;45.956;13.632;2023-04-30T01:59:52;100574.31;;;14.76;70.06
34237;BME280;20501;45.956;13.632;2023-04-30T02:02:17;100578.50;;;14.62;70.21
34237;BME280;20501;45.956;13.632;2023-04-30T02:04:43;100570.72;;;14.75;69.67
34237;BME280;20501;45.956;13.632;2023-04-30T02:07:08;100579.25;;;14.72;69.87
34237;BME280;20501;45.956;13.632;2023-04-30T02:09:34;100578.72;;;14.85;68.93
34237;BME280;20501;45.956;13.632;2023-04-30T02:11:59;100568.38;;;14.80;69.58
34237;BME280;20501;45.956;13.632;2023-04-30T02:14:24;100566.25;;;14.66;70.67
34237;BME280;20501;45.956;13.632;2023-04-30T02:16:50;100571.41;;;14.26;72.74
34237;BME280;20501;45.956;13.632;2023-04-30T02:19:15;100573.41;;;13.73;75.01
34237;BME280;20501;45.956;13.632;2023-04-30T02:21:41;100571.25;;;14.19;72.81
34237;BME280;20501;45.956;13.632;2023-04-30T02:24:06;100568.28;;;13.70;75.46
34237;BME280;20501;45.956;13.632;2023-04-30T02:26:31;100564.53;;;13.97;74.15
34237;BME280;20501;45.956;13.632;2023-04-30T02:28:57;100560.25;;;14.37;71.21
34237;BME280;20501;45.956;13.632;2023-04-30T02:31:22;100559.25;;;13.87;74.24
34237;BME280;20501;45.956;13.632;2023-04-30T02:33:48;100555.19;;;14.43;71.16
34237;BME280;20501;45.956;13.632;2023-04-30T02:36:13;100550.00;;;14.74;69.64
34237;BME280;20501;45.956;13.632;2023-04-30T02:38:38;100548.81;;;14.85;69.22
34237;BME280;20501;45.956;13.632;2023-04-30T02:41:04;100548.81;;;14.77;69.59
34237;BME280;20501;45.956;13.632;2023-04-30T02:43:29;100558.94;;;13.64;75.08
34237;BME280;20501;45.956;13.632;2023-04-30T02:45:55;100555.19;;;13.39;76.38
34237;BME280;20501;45.956;13.632;2023-04-30T02:48:20;100562.09;;;13.33;76.40
34237;BME280;20501;45.956;13.632;2023-04-30T02:50:46;100556.34;;;13.89;73.62
34237;BME280;20501;45.956;13.632;2023-04-30T02:53:11;100558.00;;;14.16;72.62
34237;BME280;20501;45.956;13.632;2023-04-30T02:55:36;100563.47;;;12.93;79.18
34237;BME280;20501;45.956;13.632;2023-04-30T02:58:02;100567.28;;;13.44;75.47
34237;BME280;20501;45.956;13.632;2023-04-30T03:00:27;100570.38;;;13.05;78.04
34237;BME280;20501;45.956;13.632;2023-04-30T03:02:53;100572.75;;;13.08;77.96
34237;BME280;20501;45.956;13.632;2023-04-30T03:05:18;100573.81;;;14.29;72.00
34237;BME280;20501;45.956;13.632;2023-04-30T03:07:43;100560.75;;;13.82;74.41
34237;BME280;20501;45.956;13.632;2023-04-30T03:10:09;100568.91;;;12.75;78.94
34237;BME280;20501;45.956;13.632;2023-04-30T03:12:35;100565.63;;;13.34;76.65
34237;BME280;20501;45.956;13.632;2023-04-30T03:15:00;100561.69;;;13.72;74.21
34237;BME280;20501;45.956;13.632;2023-04-30T03:17:25;100560.41;;;13.93;73.62
34237;BME280;20501;45.956;13.632;2023-04-30T03:19:51;100563.03;;;13.42;75.52
34237;BME280;20501;45.956;13.632;2023-04-30T03:22:16;100558.22;;;14.31;71.91
34237;BME280;20501;45.956;13.632;2023-04-30T03:24:44;100558.31;;;14.73;70.00
34237;BME280;20501;45.956;13.632;2023-04-30T03:27:09;100560.31;;;14.03;72.91
34237;BME280;20501;45.956;13.632;2023-04-30T03:29:35;100564.72;;;14.47;70.76
34237;BME280;20501;45.956;13.632;2023-04-30T03:32:00;100557.22;;;14.49;70.83
34237;BME280;20501;45.956;13.632;2023-04-30T03:34:26;100562.75;;;14.82;69.15
34237;BME280;20501;45.956;13.632;2023-04-30T03:36:51;100569.91;;;14.23;72.07
34237;BME280;20501;45.956;13.632;2023-04-30T03:39:17;100561.91;;;14.73;69.79
34237;BME280;20501;45.956;13.632;2023-04-30T03:41:42;100558.31;;;14.13;72.43
34237;BME280;20501;45.956;13.632;2023-04-30T03:44:08;100565.03;;;14.44;70.87
34237;BME280;20501;45.956;13.632;2023-04-30T03:46:42;100555.38;;;14.66;69.83
34237;BME280;20501;45.956;13.632;2023-04-30T03:49:07;100559.53;;;14.78;69.39
34237;BME280;20501;45.956;13.632;2023-04-30T03:51:33;100558.66;;;13.75;73.52
34237;BME280;20501;45.956;13.632;2023-04-30T03:54:06;100565.75;;;13.24;75.72
34237;BME280;20501;45.956;13.632;2023-04-30T03:56:32;100568.69;;;13.49;74.62
34237;BME280;20501;45.956;13.632;2023-04-30T03:58:58;100564.75;;;13.69;73.70
34237;BME280;20501;45.956;13.632;2023-04-30T04:01:24;100568.81;;;13.73;73.71
34237;BME280;20501;45.956;13.632;2023-04-30T04:03:50;100570.13;;;13.16;75.96
34237;BME280;20501;45.956;13.632;2023-04-30T04:06:15;100574.25;;;13.47;74.40
34237;BME280;20501;45.956;13.632;2023-04-30T04:08:40;100576.78;;;14.01;72.38
34237;BME280;20501;45.956;13.632;2023-04-30T04:11:10;100572.38;;;14.08;72.16
34237;BME280;20501;45.956;13.632;2023-04-30T04:13:36;100575.66;;;13.86;73.01
34237;BME280;20501;45.956;13.632;2023-04-30T04:16:01;100576.69;;;13.58;73.13
34237;BME280;20501;45.956;13.632;2023-04-30T04:18:27;100569.81;;;13.01;76.36
34237;BME280;20501;45.956;13.632;2023-04-30T04:20:54;100574.63;;;12.90;76.95
34237;BME280;20501;45.956;13.632;2023-04-30T04:23:20;100577.78;;;12.67;78.17
34237;BME280;20501;45.956;13.632;2023-04-30T04:25:45;100571.91;;;12.90;77.28
34237;BME280;20501;45.956;13.632;2023-04-30T04:28:14;100579.84;;;13.27;75.67
34237;BME280;20501;45.956;13.632;2023-04-30T04:30:40;100584.16;;;14.26;71.60
34237;BME280;20501;45.956;13.632;2023-04-30T04:33:05;100576.25;;;14.49;70.44
34237;BME280;20501;45.956;13.632;2023-04-30T04:35:31;100587.69;;;13.49;74.23
34237;BME280;20501;45.956;13.632;2023-04-30T04:37:56;100591.44;;;12.57;78.76
34237;BME280;20501;45.956;13.632;2023-04-30T04:40:21;100593.31;;;12.93;77.69
34237;BME280;20501;45.956;13.632;2023-04-30T04:42:50;100597.84;;;13.46;74.80
34237;BME280;20501;45.956;13.632;2023-04-30T04:45:16;100602.13;;;13.57;74.02
34237;BME280;20501;45.956;13.632;2023-04-30T04:47:41;100598.41;;;13.85;73.24
34237;BME280;20501;45.956;13.632;2023-04-30T04:50:07;100599.38;;;13.75;73.45
34237;BME280;20501;45.956;13.632;2023-04-30T04:52:33;100605.97;;;13.46;75.07
34237;BME280;20501;45.956;13.632;2023-04-30T04:54:58;100594.34;;;14.23;71.24
34237;BME280;20501;45.956;13.632;2023-04-30T04:57:23;100595.88;;;13.39;75.03
34237;BME280;20501;45.956;13.632;2023-04-30T04:59:50;100595.72;;;14.19;71.77
34237;BME280;20501;45.956;13.632;2023-04-30T05:02:15;100597.44;;;13.94;73.30
34237;BME280;20501;45.956;13.632;2023-04-30T05:04:40;100601.88;;;13.69;74.58
34237;BME280;20501;45.956;13.632;2023-04-30T05:07:06;100595.56;;;13.60;74.59
34237;BME280;20501;45.956;13.632;2023-04-30T05:09:32;100587.13;;;13.98;72.84
34237;BME280;20501;45.956;13.632;2023-04-30T05:11:57;100598.28;;;13.60;73.98
34237;BME280;20501;45.956;13.632;2023-04-30T05:14:23;100598.78;;;13.90;72.99
34237;BME280;20501;45.956;13.632;2023-04-30T05:16:48;100608.22;;;13.77;74.08
34237;BME280;20501;45.956;13.632;2023-04-30T05:19:14;100611.09;;;13.76;74.38
34237;BME280;20501;45.956;13.632;2023-04-30T05:21:39;100600.16;;;13.94;73.20
34237;BME280;20501;45.956;13.632;2023-04-30T05:24:05;100593.69;;;13.60;75.67
34237;BME280;20501;45.956;13.632;2023-04-30T05:26:30;100598.31;;;13.95;73.10
34237;BME280;20501;45.956;13.632;2023-04-30T05:28:56;100599.72;;;14.58;70.32
34237;BME280;20501;45.956;13.632;2023-04-30T05:31:21;100597.09;;;14.83;69.10
34237;BME280;20501;45.956;13.632;2023-04-30T05:33:47;100596.56;;;14.28;72.18
34237;BME280;20501;45.956;13.632;2023-04-30T05:36:13;100604.25;;;13.98;73.58
34237;BME280;20501;45.956;13.632;2023-04-30T05:38:38;100605.78;;;14.01;72.70
34237;BME280;20501;45.956;13.632;2023-04-30T05:41:04;100601.91;;;14.46;70.75
34237;BME280;20501;45.956;13.632;2023-04-30T05:43:29;100603.78;;;14.46;71.03
34237;BME280;20501;45.956;13.632;2023-04-30T05:45:54;100606.78;;;14.85;69.06
34237;BME280;20501;45.956;13.632;2023-04-30T05:48:20;100608.88;;;14.49;71.10
34237;BME280;20501;45.956;13.632;2023-04-30T05:50:45;100613.47;;;14.57;71.30
34237;BME280;20501;45.956;13.632;2023-04-30T05:53:12;100610.59;;;14.58;70.29
34237;BME280;20501;45.956;13.632;2023-04-30T05:55:37;100610.06;;;14.46;70.83
34237;BME280;20501;45.956;13.632;2023-04-30T05:58:03;100614.09;;;14.85;69.06
34237;BME280;20501;45.956;13.632;2023-04-30T06:00:28;100609.16;;;14.97;69.43
34237;BME280;20501;45.956;13.632;2023-04-30T06:02:54;100611.69;;;14.74;69.73
34237;BME280;20501;45.956;13.632;2023-04-30T06:05:19;100619.88;;;14.90;69.10
34237;BME280;20501;45.956;13.632;2023-04-30T06:07:45;100623.25;;;14.76;70.79
34237;BME280;20501;45.956;13.632;2023-04-30T06:10:10;100622.56;;;14.74;71.63
34237;BME280;20501;45.956;13.632;2023-04-30T06:12:36;100620.81;;;14.56;72.01
34237;BME280;20501;45.956;13.632;2023-04-30T06:15:02;100617.81;;;14.76;70.90
34237;BME280;20501;45.956;13.632;2023-04-30T06:17:28;100619.81;;;14.65;71.16
34237;BME280;20501;45.956;13.632;2023-04-30T06:19:53;100620.91;;;14.89;69.08
34237;BME280;20501;45.956;13.632;2023-04-30T06:22:19;100621.59;;;15.08;68.36
34237;BME280;20501;45.956;13.632;2023-04-30T06:24:44;100621.78;;;15.06;68.02
34237;BME280;20501;45.956;13.632;2023-04-30T06:27:10;100622.25;;;14.93;70.88
34237;BME280;20501;45.956;13.632;2023-04-30T06:29:35;100622.59;;;14.90;70.70
34237;BME280;20501;45.956;13.632;2023-04-30T06:32:00;100616.16;;;15.16;67.70
34237;BME280;20501;45.956;13.632;2023-04-30T06:34:29;100622.44;;;15.08;69.75
34237;BME280;20501;45.956;13.632;2023-04-30T06:36:55;100624.69;;;15.21;67.58
34237;BME280;20501;45.956;13.632;2023-04-30T06:39:20;100618.38;;;15.29;67.19
34237;BME280;20501;45.956;13.632;2023-04-30T06:41:46;100627.41;;;15.29;67.74
34237;BME280;20501;45.956;13.632;2023-04-30T06:44:11;100630.97;;;15.38;66.74
34237;BME280;20501;45.956;13.632;2023-04-30T06:46:37;100630.28;;;15.44;66.71
34237;BME280;20501;45.956;13.632;2023-04-30T06:49:02;100635.56;;;15.21;71.83
34237;BME280;20501;45.956;13.632;2023-04-30T06:51:28;100632.16;;;15.19;71.41
34237;BME280;20501;45.956;13.632;2023-04-30T06:53:53;100632.66;;;15.31;69.32
34237;BME280;20501;45.956;13.632;2023-04-30T06:56:19;100639.66;;;15.42;70.86
34237;BME280;20501;45.956;13.632;2023-04-30T06:58:46;100639.28;;;15.45;72.43
34237;BME280;20501;45.956;13.632;2023-04-30T07:01:11;100638.44;;;15.53;67.96
34237;BME280;20501;45.956;13.632;2023-04-30T07:03:36;100644.22;;;15.58;71.68
34237;BME280;20501;45.956;13.632;2023-04-30T07:06:02;100642.19;;;15.68;70.44
34237;BME280;20501;45.956;13.632;2023-04-30T07:08:27;100640.94;;;15.79;71.11
34237;BME280;20501;45.956;13.632;2023-04-30T07:10:53;100640.81;;;15.89;69.12
34237;BME280;20501;45.956;13.632;2023-04-30T07:13:18;100643.16;;;16.00;69.71
34237;BME280;20501;45.956;13.632;2023-04-30T07:15:44;100643.16;;;16.00;70.02
34237;BME280;20501;45.956;13.632;2023-04-30T07:18:09;100645.84;;;16.08;68.21
34237;BME280;20501;45.956;13.632;2023-04-30T07:20:35;100647.75;;;16.08;67.90
34237;BME280;20501;45.956;13.632;2023-04-30T07:23:00;100644.56;;;16.36;67.59
34237;BME280;20501;45.956;13.632;2023-04-30T07:25:26;100641.06;;;16.59;66.65
34237;BME280;20501;45.956;13.632;2023-04-30T07:27:51;100644.56;;;16.76;65.68
34237;BME280;20501;45.956;13.632;2023-04-30T07:30:19;100637.47;;;16.58;65.51
34237;BME280;20501;45.956;13.632;2023-04-30T07:32:46;100646.94;;;16.79;64.46
34237;BME280;20501;45.956;13.632;2023-04-30T07:35:12;100635.97;;;16.87;64.65
34237;BME280;20501;45.956;13.632;2023-04-30T07:37:39;100646.97;;;17.25;61.48
34237;BME280;20501;45.956;13.632;2023-04-30T07:40:05;100643.88;;;17.28;62.16
34237;BME280;20501;45.956;13.632;2023-04-30T07:42:33;100653.66;;;17.61;59.02
34237;BME280;20501;45.956;13.632;2023-04-30T07:44:58;100649.63;;;17.57;59.29
34237;BME280;20501;45.956;13.632;2023-04-30T07:47:24;100655.94;;;17.72;59.54
34237;BME280;20501;45.956;13.632;2023-04-30T07:49:51;100653.88;;;18.13;58.98
34237;BME280;20501;45.956;13.632;2023-04-30T07:52:16;100651.41;;;18.18;58.65
34237;BME280;20501;45.956;13.632;2023-04-30T07:54:42;100660.94;;;18.37;57.09
34237;BME280;20501;45.956;13.632;2023-04-30T07:57:07;100663.59;;;18.30;56.92
34237;BME280;20501;45.956;13.632;2023-04-30T07:59:32;100661.31;;;18.34;56.72
34237;BME280;20501;45.956;13.632;2023-04-30T08:01:59;100666.22;;;18.08;58.08
34237;BME280;20501;45.956;13.632;2023-04-30T08:04:25;100672.25;;;18.34;56.90
34237;BME280;20501;45.956;13.632;2023-04-30T08:06:51;100660.63;;;18.62;56.38
34237;BME280;20501;45.956;13.632;2023-04-30T08:09:16;100664.56;;;18.74;56.01
34237;BME280;20501;45.956;13.632;2023-04-30T08:11:42;100654.16;;;18.84;55.18
34237;BME280;20501;45.956;13.632;2023-04-30T08:14:07;100666.53;;;18.95;54.32
34237;BME280;20501;45.956;13.632;2023-04-30T08:16:33;100662.53;;;18.98;53.78
34237;BME280;20501;45.956;13.632;2023-04-30T08:18:58;100660.97;;;18.74;54.30
34237;BME280;20501;45.956;13.632;2023-04-30T08:21:24;100649.66;;;18.77;53.90
34237;BME280;20501;45.956;13.632;2023-04-30T08:23:52;100652.22;;;18.63;54.62
34237;BME280;20501;45.956;13.632;2023-04-30T08:26:18;100662.25;;;18.11;57.43
34237;BME280;20501;45.956;13.632;2023-04-30T08:28:43;100669.22;;;18.59;54.87
34237;BME280;20501;45.956;13.632;2023-04-30T08:31:08;100667.72;;;18.56;56.94
34237;BME280;20501;45.956;13.632;2023-04-30T08:33:34;100673.13;;;18.19;56.54
34237;BME280;20501;45.956;13.632;2023-04-30T08:35:59;100662.25;;;18.56;54.26
34237;BME280;20501;45.956;13.632;2023-04-30T08:38:25;100666.28;;;18.60;53.16
34237;BME280;20501;45.956;13.632;2023-04-30T08:40:56;100664.38;;;18.76;52.90
34237;BME280;20501;45.956;13.632;2023-04-30T08:43:26;100669.91;;;18.97;52.73
34237;BME280;20501;45.956;13.632;2023-04-30T08:45:52;100671.75;;;19.12;51.81
34237;BME280;20501;45.956;13.632;2023-04-30T08:48:18;100658.63;;;18.70;52.46
34237;BME280;20501;45.956;13.632;2023-04-30T08:50:43;100659.69;;;18.91;51.49
34237;BME280;20501;45.956;13.632;2023-04-30T08:53:10;100664.72;;;18.87;52.07
34237;BME280;20501;45.956;13.632;2023-04-30T08:55:38;100667.78;;;18.78;51.26
34237;BME280;20501;45.956;13.632;2023-04-30T08:58:04;100662.63;;;18.53;51.33
34237;BME280;20501;45.956;13.632;2023-04-30T09:00:31;100660.09;;;18.88;50.79
34237;BME280;20501;45.956;13.632;2023-04-30T09:02:57;100669.97;;;18.37;53.20
34237;BME280;20501;45.956;13.632;2023-04-30T09:05:22;100671.97;;;18.29;55.43
34237;BME280;20501;45.956;13.632;2023-04-30T09:07:48;100681.03;;;18.29;54.35
34237;BME280;20501;45.956;13.632;2023-04-30T09:10:18;100680.44;;;18.49;54.10
34237;BME280;20501;45.956;13.632;2023-04-30T09:12:57;100683.84;;;18.36;53.74
34237;BME280;20501;45.956;13.632;2023-04-30T09:15:23;100673.38;;;18.54;52.43
34237;BME280;20501;45.956;13.632;2023-04-30T09:17:48;100681.88;;;18.60;53.06
34237;BME280;20501;45.956;13.632;2023-04-30T09:20:14;100685.72;;;18.20;55.04
34237;BME280;20501;45.956;13.632;2023-04-30T09:22:41;100672.81;;;17.99;55.28
34237;BME280;20501;45.956;13.632;2023-04-30T09:25:08;100678.66;;;18.11;56.13
34237;BME280;20501;45.956;13.632;2023-04-30T09:27:33;100682.41;;;18.25;54.52
34237;BME280;20501;45.956;13.632;2023-04-30T09:29:59;100676.41;;;18.45;51.60
34237;BME280;20501;45.956;13.632;2023-04-30T09:32:25;100676.88;;;18.48;50.13
34237;BME280;20501;45.956;13.632;2023-04-30T09:34:51;100670.09;;;18.29;50.59
34237;BME280;20501;45.956;13.632;2023-04-30T09:37:16;100681.22;;;17.98;52.00
34237;BME280;20501;45.956;13.632;2023-04-30T09:39:48;100674.91;;;17.74;55.49
34237;BME280;20501;45.956;13.632;2023-04-30T09:42:14;100671.50;;;17.72;54.25
34237;BME280;20501;45.956;13.632;2023-04-30T09:44:40;100670.41;;;17.96;51.31
34237;BME280;20501;45.956;13.632;2023-04-30T09:47:17;100670.56;;;17.41;53.99
34237;BME280;20501;45.956;13.632;2023-04-30T09:49:46;100678.91;;;17.63;54.62
34237;BME280;20501;45.956;13.632;2023-04-30T09:52:14;100674.13;;;18.03;50.75
34237;BME280;20501;45.956;13.632;2023-04-30T09:54:40;100671.00;;;18.36;49.05
34237;BME280;20501;45.956;13.632;2023-04-30T09:57:10;100670.91;;;18.15;49.56
34237;BME280;20501;45.956;13.632;2023-04-30T09:59:36;100675.38;;;17.77;52.61
34237;BME280;20501;45.956;13.632;2023-04-30T10:02:07;100677.91;;;18.02;51.82
34237;BME280;20501;45.956;13.632;2023-04-30T10:07:01;100675.56;;;18.14;51.28
34237;BME280;20501;45.956;13.632;2023-04-30T10:09:39;100669.06;;;17.77;52.37
34237;BME280;20501;45.956;13.632;2023-04-30T10:12:08;100662.09;;;17.74;52.64
34237;BME280;20501;45.956;13.632;2023-04-30T10:14:39;100666.97;;;18.17;50.94
34237;BME280;20501;45.956;13.632;2023-04-30T10:17:12;100660.94;;;18.07;52.61
34237;BME280;20501;45.956;13.632;2023-04-30T10:19:42;100659.91;;;18.23;52.18
34237;BME280;20501;45.956;13.632;2023-04-30T10:22:10;100663.69;;;18.22;51.86
34237;BME280;20501;45.956;13.632;2023-04-30T10:24:36;100653.19;;;18.40;51.29
34237;BME280;20501;45.956;13.632;2023-04-30T10:27:02;100653.09;;;18.34;51.46
34237;BME280;20501;45.956;13.632;2023-04-30T10:29:28;100656.63;;;18.28;50.96
34237;BME280;20501;45.956;13.632;2023-04-30T10:31:54;100659.63;;;18.18;51.23
34237;BME280;20501;45.956;13.632;2023-04-30T10:36:49;100653.69;;;17.99;52.35
34237;BME280;20501;45.956;13.632;2023-04-30T10:39:20;100645.53;;;17.76;54.66
34237;BME280;20501;45.956;13.632;2023-04-30T10:41:46;100642.00;;;17.52;54.84
34237;BME280;20501;45.956;13.632;2023-04-30T10:44:13;100643.09;;;17.96;53.99
34237;BME280;20501;45.956;13.632;2023-04-30T10:46:39;100645.69;;;18.13;52.71
34237;BME280;20501;45.956;13.632;2023-04-30T10:49:05;100637.28;;;17.99;52.75
34237;BME280;20501;45.956;13.632;2023-04-30T10:51:50;100636.34;;;18.07;52.21
34237;BME280;20501;45.956;13.632;2023-04-30T10:54:26;100630.88;;;18.07;51.49
34237;BME280;20501;45.956;13.632;2023-04-30T10:56:52;100623.81;;;18.13;51.36
34237;BME280;20501;45.956;13.632;2023-04-30T10:59:21;100632.84;;;18.28;51.58
34237;BME280;20501;45.956;13.632;2023-04-30T11:02:00;100627.25;;;18.36;50.74
34237;BME280;20501;45.956;13.632;2023-04-30T11:04:26;100625.66;;;18.42;50.72
34237;BME280;20501;45.956;13.632;2023-04-30T11:09:34;100620.59;;;19.12;48.51
34237;BME280;20501;45.956;13.632;2023-04-30T11:12:08;100617.97;;;19.26;47.10
34237;BME280;20501;45.956;13.632;2023-04-30T11:14:39;100617.31;;;19.24;46.21
34237;BME280;20501;45.956;13.632;2023-04-30T11:17:04;100612.16;;;19.14;46.72
34237;BME280;20501;45.956;13.632;2023-04-30T11:19:31;100617.84;;;19.62;45.93
34237;BME280;20501;45.956;13.632;2023-04-30T11:25:01;100606.31;;;18.95;49.98
34237;BME280;20501;45.956;13.632;2023-04-30T11:27:29;100598.41;;;19.07;47.55
34237;BME280;20501;45.956;13.632;2023-04-30T11:29:56;100596.81;;;19.41;46.48
34237;BME280;20501;45.956;13.632;2023-04-30T11:32:23;100592.09;;;19.07;47.66
34237;BME280;20501;45.956;13.632;2023-04-30T11:34:50;100595.38;;;19.45;46.96
34237;BME280;20501;45.956;13.632;2023-04-30T11:37:20;100601.47;;;19.69;46.02
34237;BME280;20501;45.956;13.632;2023-04-30T11:39:47;100601.88;;;19.94;44.65
34237;BME280;20501;45.956;13.632;2023-04-30T11:42:19;100595.69;;;19.57;44.76
34237;BME280;20501;45.956;13.632;2023-04-30T11:44:45;100600.75;;;19.32;47.66
34237;BME280;20501;45.956;13.632;2023-04-30T11:47:14;100591.63;;;19.25;48.62
34237;BME280;20501;45.956;13.632;2023-04-30T11:49:40;100600.31;;;19.57;45.21
34237;BME280;20501;45.956;13.632;2023-04-30T11:52:06;100593.47;;;18.81;48.01
34237;BME280;20501;45.956;13.632;2023-04-30T11:54:35;100600.41;;;18.77;49.07
34237;BME280;20501;45.956;13.632;2023-04-30T11:57:02;100591.31;;;19.13;47.64
34237;BME280;20501;45.956;13.632;2023-04-30T11:59:29;100591.13;;;19.14;46.26
34237;BME280;20501;45.956;13.632;2023-04-30T12:01:55;100588.47;;;18.99;47.56
34237;BME280;20501;45.956;13.632;2023-04-30T12:04:21;100590.59;;;19.26;47.62
34237;BME280;20501;45.956;13.632;2023-04-30T12:06:47;100594.28;;;19.40;47.61
34237;BME280;20501;45.956;13.632;2023-04-30T12:09:12;100586.75;;;19.20;47.72
34237;BME280;20501;45.956;13.632;2023-04-30T12:11:38;100585.19;;;19.11;51.53
34237;BME280;20501;45.956;13.632;2023-04-30T12:14:08;100587.47;;;19.07;48.02
34237;BME280;20501;45.956;13.632;2023-04-30T12:19:08;100582.16;;;18.84;49.54
34237;BME280;20501;45.956;13.632;2023-04-30T12:21:34;100572.91;;;18.85;47.85
34237;BME280;20501;45.956;13.632;2023-04-30T12:24:00;100569.28;;;18.41;50.62
34237;BME280;20501;45.956;13.632;2023-04-30T12:26:39;100568.91;;;18.29;49.75
34237;BME280;20501;45.956;13.632;2023-04-30T12:29:21;100564.75;;;18.92;48.20
34237;BME280;20501;45.956;13.632;2023-04-30T12:31:48;100562.94;;;18.77;48.02
34237;BME280;20501;45.956;13.632;2023-04-30T12:34:14;100564.63;;;18.78;48.81
34237;BME280;20501;45.956;13.632;2023-04-30T12:36:41;100551.94;;;19.14;47.85
34237;BME280;20501;45.956;13.632;2023-04-30T12:39:14;100546.31;;;19.22;46.44
34237;BME280;20501;45.956;13.632;2023-04-30T12:46:40;100542.81;;;19.07;46.59
34237;BME280;20501;45.956;13.632;2023-04-30T12:49:05;100536.97;;;19.10;47.34
34237;BME280;20501;45.956;13.632;2023-04-30T12:51:34;100530.22;;;19.12;45.81
34237;BME280;20501;45.956;13.632;2023-04-30T12:54:00;100534.94;;;18.97;47.26
34237;BME280;20501;45.956;13.632;2023-04-30T12:56:26;100535.06;;;18.30;49.88
34237;BME280;20501;45.956;13.632;2023-04-30T12:58:51;100526.81;;;18.45;49.17
34237;BME280;20501;45.956;13.632;2023-04-30T13:01:19;100525.28;;;18.58;48.59
34237;BME280;20501;45.956;13.632;2023-04-30T13:03:45;100529.66;;;18.95;47.02
34237;BME280;20501;45.956;13.632;2023-04-30T13:06:10;100532.09;;;18.68;48.44
34237;BME280;20501;45.956;13.632;2023-04-30T13:08:36;100519.06;;;18.70;47.30